createdAt,value
2023-10-26T00:01:18.760Z,96030.11
2023-10-26T00:03:47.039Z,96031.71
2023-10-26T00:06:15.303Z,96035.73
2023-10-26T00:08:43.434Z,96032.55
2023-10-26T00:11:11.678Z,96028.82
2023-10-26T00:13:39.581Z,96024.77
2023-10-26T00:16:07.670Z,96021.15
2023-10-26T00:18:35.754Z,96021.41
2023-10-26T00:21:03.970Z,96019.52
2023-10-26T00:23:31.945Z,96022.04
2023-10-26T00:25:59.839Z,96021.88
2023-10-26T00:28:27.731Z,96025.50
2023-10-26T00:30:55.784Z,96021.67
2023-10-26T00:33:23.892Z,96019.27
2023-10-26T00:35:54.300Z,96013.39
2023-10-26T00:38:22.415Z,96009.27
2023-10-26T00:40:50.363Z,96014.31
2023-10-26T00:43:23.171Z,96010.44
2023-10-26T00:45:53.400Z,96010.10
2023-10-26T00:48:22.350Z,96010.35
2023-10-26T00:50:50.836Z,96014.92
2023-10-26T00:53:21.325Z,96017.80
2023-10-26T00:55:52.462Z,96016.59
2023-10-26T00:58:22.583Z,96008.52
2023-10-26T01:00:50.889Z,95992.45
2023-10-26T01:03:19.994Z,95988.56
2023-10-26T01:05:48.760Z,95986.40
2023-10-26T01:08:17.056Z,95982.27
2023-10-26T01:10:46.469Z,95986.59
2023-10-26T01:13:14.981Z,95990.48
2023-10-26T01:15:43.199Z,95981.00
2023-10-26T01:18:11.314Z,95975.10
2023-10-26T01:20:42.476Z,95973.60
2023-10-26T01:23:11.068Z,95977.86
2023-10-26T01:25:39.115Z,95984.42
2023-10-26T01:28:08.414Z,95985.04
2023-10-26T01:30:36.369Z,95981.54
2023-10-26T01:33:04.450Z,95985.41
2023-10-26T01:35:42.043Z,95985.64
2023-10-26T01:38:10.223Z,95989.38
2023-10-26T01:40:38.298Z,95995.81
2023-10-26T01:43:06.770Z,95995.92
2023-10-26T01:45:34.979Z,95992.77
2023-10-26T01:48:06.354Z,95994.81
2023-10-26T01:50:34.538Z,95996.45
2023-10-26T01:53:02.545Z,95996.67
2023-10-26T01:55:30.614Z,95999.06
2023-10-26T01:57:59.172Z,95999.42
2023-10-26T02:00:27.300Z,95992.92
2023-10-26T02:02:57.244Z,95991.25
2023-10-26T02:05:26.458Z,95987.45
2023-10-26T02:07:54.643Z,95981.29
2023-10-26T02:10:25.104Z,95977.94
2023-10-26T02:12:53.218Z,95975.70
2023-10-26T02:15:21.499Z,95980.39
2023-10-26T02:17:49.907Z,95984.70
2023-10-26T02:20:18.201Z,95984.54
2023-10-26T02:22:48.005Z,95984.98
2023-10-26T02:25:16.664Z,95986.57
2023-10-26T02:27:44.816Z,95986.30
2023-10-26T02:30:13.578Z,95985.02
2023-10-26T02:32:41.965Z,95986.23
2023-10-26T02:35:10.285Z,95983.67
2023-10-26T02:37:41.756Z,95978.20
2023-10-26T02:40:10.830Z,95980.05
2023-10-26T02:42:40.346Z,95977.59
2023-10-26T02:45:10.035Z,95976.89
2023-10-26T02:47:39.144Z,95976.05
2023-10-26T02:50:07.951Z,95979.21
2023-10-26T02:52:36.760Z,95979.72
2023-10-26T02:55:06.651Z,95978.48
2023-10-26T02:57:34.593Z,95975.67
2023-10-26T03:00:02.761Z,95976.96
2023-10-26T03:02:30.806Z,95981.38
2023-10-26T03:04:58.802Z,95978.71
2023-10-26T03:07:26.749Z,95979.27
2023-10-26T03:09:54.831Z,95981.41
2023-10-26T03:12:23.753Z,95983.77
2023-10-26T03:14:51.668Z,95991.46
2023-10-26T03:17:19.718Z,95996.75
2023-10-26T03:19:47.662Z,95992.51
2023-10-26T03:22:15.850Z,95994.29
2023-10-26T03:24:44.050Z,96002.50
2023-10-26T03:27:12.216Z,95999.46
2023-10-26T03:29:40.436Z,95994.63
2023-10-26T03:32:08.403Z,95992.64
2023-10-26T03:34:36.465Z,95985.23
2023-10-26T03:37:05.140Z,95981.31
2023-10-26T03:39:33.293Z,95982.80
2023-10-26T03:42:01.538Z,95979.00
2023-10-26T03:44:29.759Z,95986.21
2023-10-26T03:46:57.785Z,95995.73
2023-10-26T03:49:26.362Z,95987.48
2023-10-26T03:51:55.375Z,95980.10
2023-10-26T03:54:23.541Z,95981.14
2023-10-26T03:56:51.484Z,95968.99
2023-10-26T03:59:19.464Z,95966.61
2023-10-26T04:01:47.568Z,95971.48
2023-10-26T04:04:15.559Z,95970.82
2023-10-26T04:06:43.702Z,95967.23
2023-10-26T04:09:11.837Z,95957.35
2023-10-26T04:11:39.905Z,95950.27
2023-10-26T04:14:08.818Z,95951.38
2023-10-26T04:16:36.815Z,95951.00
2023-10-26T04:19:04.899Z,95945.73
2023-10-26T04:21:33.043Z,95941.83
2023-10-26T04:24:01.302Z,95943.08
2023-10-26T04:26:29.537Z,95945.88
2023-10-26T04:28:57.718Z,95944.31
2023-10-26T04:31:26.326Z,95938.56
2023-10-26T04:33:54.436Z,95936.95
2023-10-26T04:36:23.019Z,95940.39
2023-10-26T04:38:51.684Z,95938.89
2023-10-26T04:41:19.904Z,95938.88
2023-10-26T04:43:47.893Z,95939.47
2023-10-26T04:46:15.984Z,95942.49
2023-10-26T04:48:44.215Z,95942.67
2023-10-26T04:51:12.591Z,95940.24
2023-10-26T04:53:40.634Z,95936.29
2023-10-26T04:56:11.757Z,95933.35
2023-10-26T04:58:39.922Z,95932.40
2023-10-26T05:01:08.000Z,95935.33
2023-10-26T05:03:36.174Z,95933.50
2023-10-26T05:06:04.479Z,95935.73
2023-10-26T05:08:32.647Z,95932.44
2023-10-26T05:11:00.936Z,95929.04
2023-10-26T05:13:29.567Z,95929.89
2023-10-26T05:15:57.680Z,95926.30
2023-10-26T05:18:25.853Z,95927.49
2023-10-26T05:20:53.932Z,95928.33
2023-10-26T05:23:21.973Z,95936.60
2023-10-26T05:25:50.176Z,95932.91
2023-10-26T05:28:18.396Z,95929.27
2023-10-26T05:30:46.465Z,95937.41
2023-10-26T05:33:16.695Z,95940.31
2023-10-26T05:35:45.906Z,95938.87
2023-10-26T05:38:16.041Z,95941.36
2023-10-26T05:40:55.612Z,95944.76
2023-10-26T05:43:24.600Z,95945.70
2023-10-26T05:45:53.742Z,95945.52
2023-10-26T05:48:24.565Z,95945.88
2023-10-26T05:50:52.513Z,95952.98
2023-10-26T05:53:20.732Z,95960.13
2023-10-26T05:56:00.090Z,95960.48
2023-10-26T05:58:28.605Z,95958.62
2023-10-26T06:00:57.013Z,95954.02
2023-10-26T06:03:25.435Z,95952.09
2023-10-26T06:05:59.655Z,95950.64
2023-10-26T06:08:28.164Z,95956.29
2023-10-26T06:10:56.310Z,95958.30
2023-10-26T06:13:24.223Z,95957.64
2023-10-26T06:15:52.281Z,95958.91
2023-10-26T06:18:20.931Z,95958.30
2023-10-26T06:21:02.467Z,95953.44
2023-10-26T06:23:30.690Z,95953.46
2023-10-26T06:25:59.654Z,95949.98
2023-10-26T06:28:28.685Z,95948.77
2023-10-26T06:31:08.237Z,95947.05
2023-10-26T06:33:36.133Z,95950.48
2023-10-26T06:36:04.696Z,95952.57
2023-10-26T06:38:32.779Z,95951.05
2023-10-26T06:41:00.737Z,95958.45
2023-10-26T06:43:30.530Z,95960.61
2023-10-26T06:46:00.494Z,95957.73
2023-10-26T06:48:28.753Z,95954.34
2023-10-26T06:51:02.281Z,95953.17
2023-10-26T06:53:30.701Z,95956.10
2023-10-26T06:55:59.753Z,95961.89
2023-10-26T06:58:28.915Z,95969.17
2023-10-26T07:00:57.666Z,95971.32
2023-10-26T07:03:26.028Z,95969.42
2023-10-26T07:05:54.794Z,95979.08
2023-10-26T07:08:22.971Z,95983.27
2023-10-26T07:10:51.054Z,95983.70
2023-10-26T07:13:19.768Z,95990.83
2023-10-26T07:15:48.326Z,95986.62
2023-10-26T07:18:19.504Z,95989.55
2023-10-26T07:20:50.528Z,95988.98
2023-10-26T07:23:19.586Z,95987.98
2023-10-26T07:25:48.709Z,95993.43
2023-10-26T07:28:18.116Z,95986.15
2023-10-26T07:30:51.922Z,95977.23
2023-10-26T07:33:20.800Z,95983.35
2023-10-26T07:35:54.109Z,95979.79
2023-10-26T07:38:35.654Z,95974.58
2023-10-26T07:41:07.012Z,95963.21
2023-10-26T07:43:36.220Z,95964.80
2023-10-26T07:46:05.001Z,95966.13
2023-10-26T07:48:33.259Z,95963.43
2023-10-26T07:51:01.256Z,95965.73
2023-10-26T07:53:32.458Z,95967.02
2023-10-26T07:56:00.636Z,95968.16
2023-10-26T07:58:31.635Z,95972.04
2023-10-26T08:01:00.443Z,95972.28
2023-10-26T08:03:29.267Z,95972.34
2023-10-26T08:06:04.011Z,95974.86
2023-10-26T08:08:32.091Z,95973.75
2023-10-26T08:11:09.594Z,95974.30
2023-10-26T08:13:37.609Z,95978.75
2023-10-26T08:16:34.415Z,95980.52
2023-10-26T08:18:54.512Z,95978.44
2023-10-26T08:21:22.610Z,95981.64
2023-10-26T08:23:50.765Z,95983.67
2023-10-26T08:26:18.814Z,95979.65
2023-10-26T08:28:47.098Z,95978.61
2023-10-26T08:31:15.039Z,95974.46
2023-10-26T08:33:43.274Z,95964.80
2023-10-26T08:36:11.397Z,95959.27
2023-10-26T08:38:39.392Z,95964.81
2023-10-26T08:41:12.373Z,95963.33
2023-10-26T08:43:40.891Z,95962.06
2023-10-26T08:46:11.855Z,95957.08
2023-10-26T08:48:42.463Z,95955.02
2023-10-26T08:51:11.457Z,95963.27
2023-10-26T08:53:41.204Z,95972.27
2023-10-26T08:56:11.170Z,95976.95
2023-10-26T08:58:39.648Z,95979.05
2023-10-26T09:01:07.931Z,95980.20
2023-10-26T09:03:36.448Z,95984.10
2023-10-26T09:06:04.670Z,95985.83
2023-10-26T09:08:32.788Z,95982.09
2023-10-26T09:11:02.606Z,95980.06
2023-10-26T09:13:30.921Z,95976.17
2023-10-26T09:16:00.583Z,95975.07
2023-10-26T09:18:29.138Z,95970.02
2023-10-26T09:21:06.104Z,95964.80
2023-10-26T09:23:36.624Z,95960.58
2023-10-26T09:26:09.289Z,95967.41
2023-10-26T09:28:57.401Z,95970.83
2023-10-26T09:31:26.431Z,95968.88
2023-10-26T09:33:54.541Z,95969.20
2023-10-26T09:36:23.462Z,95970.50
2023-10-26T09:38:52.122Z,95967.73
2023-10-26T09:41:21.264Z,95963.00
2023-10-26T09:43:49.543Z,95958.27
2023-10-26T09:46:21.565Z,95959.66
2023-10-26T09:48:50.562Z,95957.58
2023-10-26T09:51:21.366Z,95956.73
2023-10-26T09:53:50.232Z,95958.13
2023-10-26T09:56:26.348Z,95949.27
2023-10-26T09:58:54.994Z,95942.81
2023-10-26T10:01:37.387Z,95939.55
2023-10-26T10:04:06.880Z,95941.33
2023-10-26T10:06:53.740Z,95932.85
2023-10-26T10:09:26.483Z,95930.48
2023-10-26T10:12:11.051Z,95932.32
2023-10-26T10:15:36.256Z,95926.77
2023-10-26T10:17:58.665Z,95919.40
2023-10-26T10:20:28.755Z,95918.34
2023-10-26T10:22:59.794Z,95906.35
2023-10-26T10:25:51.216Z,95903.69
2023-10-26T10:28:19.773Z,95902.45
2023-10-26T10:31:00.617Z,95903.99
2023-10-26T10:33:29.788Z,95907.31
2023-10-26T10:36:09.515Z,95905.17
2023-10-26T10:38:37.629Z,95894.95
2023-10-26T10:41:13.369Z,95889.02
2023-10-26T10:43:47.608Z,95889.79
2023-10-26T10:46:17.612Z,95882.14
2023-10-26T10:49:05.014Z,95880.20
2023-10-26T10:51:43.482Z,95878.70
2023-10-26T10:54:24.099Z,95876.27
2023-10-26T10:56:58.656Z,95876.32
2023-10-26T10:59:28.452Z,95879.59
2023-10-26T11:02:10.910Z,95878.45
2023-10-26T11:05:05.241Z,95874.06
2023-10-26T11:07:37.957Z,95877.11
2023-10-26T11:10:06.559Z,95879.02
2023-10-26T11:12:35.030Z,95878.84
2023-10-26T11:15:05.090Z,95877.45
2023-10-26T11:17:33.432Z,95874.92
2023-10-26T11:20:01.435Z,95872.82
2023-10-26T11:22:29.862Z,95871.15
2023-10-26T11:24:57.833Z,95867.55
2023-10-26T11:27:26.035Z,95868.19
2023-10-26T11:30:06.940Z,95862.34
2023-10-26T11:32:35.568Z,95857.04
2023-10-26T11:35:07.447Z,95857.95
2023-10-26T11:37:37.620Z,95851.88
2023-10-26T11:40:10.234Z,95847.42
2023-10-26T11:42:50.717Z,95849.62
2023-10-26T11:45:24.050Z,95849.93
2023-10-26T11:47:54.808Z,95844.96
2023-10-26T11:50:26.827Z,95837.35
2023-10-26T11:52:57.198Z,95836.39
2023-10-26T11:55:26.426Z,95844.90
2023-10-26T11:57:58.301Z,95846.56
2023-10-26T12:00:27.772Z,95849.19
2023-10-26T12:02:57.571Z,95851.72
2023-10-26T12:05:26.678Z,95852.91
2023-10-26T12:07:55.258Z,95852.77
2023-10-26T12:10:24.770Z,95848.96
2023-10-26T12:12:54.314Z,95845.91
2023-10-26T12:15:22.583Z,95846.08
2023-10-26T12:17:50.856Z,95844.45
2023-10-26T12:20:19.458Z,95845.52
2023-10-26T12:22:49.865Z,95838.38
2023-10-26T12:25:18.075Z,95831.41
2023-10-26T12:28:20.507Z,95829.14
2023-10-26T12:30:37.214Z,95824.32
2023-10-26T12:33:05.492Z,95829.02
2023-10-26T12:35:33.574Z,95825.98
2023-10-26T12:38:01.497Z,95826.67
2023-10-26T12:40:29.568Z,95823.73
2023-10-26T12:42:59.371Z,95819.44
2023-10-26T12:45:27.493Z,95821.69
2023-10-26T12:47:55.675Z,95820.94
2023-10-26T12:50:23.696Z,95821.63
2023-10-26T12:52:51.735Z,95823.27
2023-10-26T12:55:22.137Z,95825.85
2023-10-26T12:57:51.025Z,95826.00
2023-10-26T13:00:20.187Z,95828.27
2023-10-26T13:02:48.236Z,95826.15
2023-10-26T13:05:16.471Z,95824.17
2023-10-26T13:07:44.409Z,95826.63
2023-10-26T13:10:12.409Z,95826.15
2023-10-26T13:12:40.792Z,95826.95
2023-10-26T13:15:08.999Z,95832.79
2023-10-26T13:17:36.954Z,95829.98
2023-10-26T13:20:05.675Z,95836.68
2023-10-26T13:22:33.941Z,95837.21
2023-10-26T13:25:01.990Z,95842.64
2023-10-26T13:27:29.997Z,95839.58
2023-10-26T13:29:58.105Z,95837.87
2023-10-26T13:32:28.017Z,95829.98
2023-10-26T13:34:56.200Z,95832.05
2023-10-26T13:37:24.380Z,95831.66
2023-10-26T13:39:52.483Z,95836.38
2023-10-26T13:42:20.510Z,95839.11
2023-10-26T13:44:48.673Z,95839.48
2023-10-26T13:47:16.620Z,95838.35
2023-10-26T13:49:44.856Z,95834.66
2023-10-26T13:52:13.003Z,95837.12
2023-10-26T13:54:41.110Z,95841.01
2023-10-26T13:57:09.767Z,95841.97
2023-10-26T13:59:38.878Z,95847.48
2023-10-26T14:02:07.444Z,95846.32
2023-10-26T14:04:37.327Z,95849.70
2023-10-26T14:07:06.476Z,95853.02
2023-10-26T14:09:34.679Z,95854.59
2023-10-26T14:12:02.943Z,95854.97
2023-10-26T14:14:31.417Z,95852.57
2023-10-26T14:16:59.558Z,95849.42
2023-10-26T14:19:28.171Z,95844.09
2023-10-26T14:21:56.425Z,95846.60
2023-10-26T14:24:24.363Z,95842.96
2023-10-26T14:26:52.399Z,95838.30
2023-10-26T14:29:20.357Z,95835.16
2023-10-26T14:31:48.450Z,95830.66
2023-10-26T14:34:16.633Z,95830.52
2023-10-26T14:36:44.479Z,95835.46
2023-10-26T14:39:12.507Z,95834.31
2023-10-26T14:41:42.081Z,95835.93
2023-10-26T14:44:10.363Z,95840.98
2023-10-26T14:46:38.419Z,95849.66
2023-10-26T14:49:06.859Z,95857.83
2023-10-26T14:51:35.692Z,95859.49
2023-10-26T14:54:03.831Z,95857.69
2023-10-26T14:56:31.847Z,95855.77
2023-10-26T14:58:59.812Z,95858.98
2023-10-26T15:01:28.157Z,95868.09
2023-10-26T15:03:56.879Z,95872.23
2023-10-26T15:06:26.345Z,95878.18
2023-10-26T15:08:54.942Z,95874.19
2023-10-26T15:11:25.265Z,95872.59
2023-10-26T15:13:56.269Z,95875.33
2023-10-26T15:16:24.374Z,95878.44
2023-10-26T15:18:52.369Z,95879.56
2023-10-26T15:21:20.460Z,95879.41
2023-10-26T15:23:48.522Z,95883.86
2023-10-26T15:26:16.620Z,95883.60
2023-10-26T15:28:44.650Z,95885.05
2023-10-26T15:31:12.973Z,95892.70
2023-10-26T15:33:41.123Z,95893.88
2023-10-26T15:36:09.253Z,95891.41
2023-10-26T15:38:42.255Z,95888.75
2023-10-26T15:41:11.635Z,95890.04
2023-10-26T15:43:39.772Z,95890.04
2023-10-26T15:46:07.797Z,95889.19
2023-10-26T15:49:33.793Z,95890.09
2023-10-26T15:51:24.126Z,95887.05
2023-10-26T15:53:52.020Z,95885.23
2023-10-26T15:56:20.230Z,95887.45
2023-10-26T15:58:52.209Z,95891.73
2023-10-26T16:01:20.608Z,95895.65
2023-10-26T16:03:48.697Z,95898.39
2023-10-26T16:06:20.104Z,95896.98
2023-10-26T16:08:49.590Z,95901.32
2023-10-26T16:11:17.586Z,95901.11
2023-10-26T16:13:48.910Z,95903.30
2023-10-26T16:16:17.020Z,95903.03
2023-10-26T16:18:47.932Z,95903.89
2023-10-26T16:21:16.847Z,95903.52
2023-10-26T16:23:44.943Z,95903.36
2023-10-26T16:26:12.939Z,95898.23
2023-10-26T16:28:41.089Z,95902.61
2023-10-26T16:31:09.124Z,95908.60
2023-10-26T16:33:38.029Z,95916.41
2023-10-26T16:36:06.603Z,95913.20
2023-10-26T16:38:34.469Z,95918.33
2023-10-26T16:41:02.338Z,95915.92
2023-10-26T16:43:30.331Z,95908.98
2023-10-26T16:46:01.916Z,95908.65
2023-10-26T16:48:30.054Z,95918.27
2023-10-26T16:50:58.007Z,95918.81
2023-10-26T16:53:31.364Z,95917.54
2023-10-26T16:56:02.091Z,95918.34
2023-10-26T16:58:32.920Z,95919.55
2023-10-26T17:01:04.476Z,95923.84
2023-10-26T17:03:32.595Z,95919.23
2023-10-26T17:06:00.682Z,95915.55
2023-10-26T17:08:32.912Z,95916.56
2023-10-26T17:11:00.977Z,95917.69
2023-10-26T17:13:29.113Z,95917.58
2023-10-26T17:15:57.131Z,95920.14
2023-10-26T17:18:25.176Z,95918.12
2023-10-26T17:20:59.304Z,95913.20
2023-10-26T17:23:27.393Z,95913.04
2023-10-26T17:25:55.286Z,95909.17
2023-10-26T17:28:23.291Z,95913.14
2023-10-26T17:30:51.271Z,95910.52
2023-10-26T17:33:21.225Z,95920.07
2023-10-26T17:35:52.414Z,95926.77
2023-10-26T17:38:20.401Z,95934.20
2023-10-26T17:40:49.101Z,95939.89
2023-10-26T17:43:20.487Z,95942.12
2023-10-26T17:45:57.579Z,95943.88
2023-10-26T17:48:33.874Z,95939.58
2023-10-26T17:51:04.782Z,95937.17
2023-10-26T17:53:35.321Z,95924.70
2023-10-26T17:56:03.925Z,95927.54
2023-10-26T17:58:31.821Z,95927.80
2023-10-26T18:01:08.884Z,95924.14
2023-10-26T18:03:43.223Z,95927.66
2023-10-26T18:06:16.600Z,95929.73
2023-10-26T18:08:44.622Z,95932.78
2023-10-26T18:11:12.677Z,95936.55
2023-10-26T18:13:40.648Z,95943.02
2023-10-26T18:16:13.670Z,95945.10
2023-10-26T18:18:45.809Z,95954.83
2023-10-26T18:21:14.553Z,95952.02
2023-10-26T18:23:45.421Z,95953.09
2023-10-26T18:26:15.339Z,95952.36
2023-10-26T18:28:47.575Z,95953.66
2023-10-26T18:31:18.759Z,95956.08
2023-10-26T18:33:53.065Z,95953.27
2023-10-26T18:36:29.758Z,95956.92
2023-10-26T18:39:12.712Z,95955.98
2023-10-26T18:41:45.597Z,95956.94
2023-10-26T18:44:16.645Z,95956.77
2023-10-26T18:46:47.165Z,95957.69
2023-10-26T18:49:15.305Z,95958.43
2023-10-26T18:51:43.231Z,95961.52
2023-10-26T18:54:11.212Z,95965.98
2023-10-26T18:56:39.139Z,95961.27
2023-10-26T18:59:08.122Z,95959.29
2023-10-26T19:01:36.085Z,95957.92
2023-10-26T19:04:04.254Z,95955.24
2023-10-26T19:06:32.452Z,95955.98
2023-10-26T19:09:00.401Z,95956.97
2023-10-26T19:11:29.712Z,95956.86
2023-10-26T19:13:57.990Z,95951.91
2023-10-26T19:16:26.340Z,95949.84
2023-10-26T19:18:54.437Z,95948.67
2023-10-26T19:21:24.225Z,95951.21
2023-10-26T19:23:52.260Z,95950.08
2023-10-26T19:26:20.486Z,95944.40
2023-10-26T19:28:48.489Z,95949.37
2023-10-26T19:31:16.962Z,95950.73
2023-10-26T19:33:47.930Z,95955.75
2023-10-26T19:36:18.626Z,95956.52
2023-10-26T19:38:46.595Z,95960.64
2023-10-26T19:41:17.431Z,95961.11
2023-10-26T19:43:45.529Z,95964.04
2023-10-26T19:46:14.293Z,95974.20
2023-10-26T19:48:42.506Z,95976.06
2023-10-26T19:51:10.477Z,95977.58
2023-10-26T19:53:38.595Z,95975.63
2023-10-26T19:56:06.914Z,95974.23
2023-10-26T19:58:34.792Z,95968.11
2023-10-26T20:01:04.662Z,95964.08
2023-10-26T20:03:33.097Z,95960.64
2023-10-26T20:06:02.365Z,95960.95
2023-10-26T20:08:31.969Z,95957.99
2023-10-26T20:11:00.695Z,95959.88
2023-10-26T20:13:28.810Z,95951.15
2023-10-26T20:15:57.467Z,95945.55
2023-10-26T20:18:25.390Z,95941.63
2023-10-26T20:20:53.926Z,95937.39
2023-10-26T20:23:21.968Z,95928.52
2023-10-26T20:25:50.451Z,95925.23
2023-10-26T20:28:18.805Z,95925.64
2023-10-26T20:30:46.790Z,95931.52
2023-10-26T20:33:14.785Z,95934.77
2023-10-26T20:35:48.643Z,95939.85
2023-10-26T20:38:16.738Z,95946.65
2023-10-26T20:40:44.691Z,95953.14
2023-10-26T20:43:13.173Z,95962.63
2023-10-26T20:45:47.547Z,95967.05
2023-10-26T20:48:15.541Z,95970.65
2023-10-26T20:50:43.574Z,95972.36
2023-10-26T20:53:11.690Z,95972.28
2023-10-26T20:55:39.728Z,95963.30
2023-10-26T20:58:07.847Z,95961.66
2023-10-26T21:00:35.960Z,95955.70
2023-10-26T21:03:04.090Z,95953.22
2023-10-26T21:05:32.496Z,95951.52
2023-10-26T21:08:00.505Z,95948.54
2023-10-26T21:10:28.506Z,95948.19
2023-10-26T21:12:56.681Z,95946.61
2023-10-26T21:15:24.917Z,95943.17
2023-10-26T21:17:53.033Z,95936.16
2023-10-26T21:20:21.440Z,95931.04
2023-10-26T21:22:49.416Z,95933.75
2023-10-26T21:25:17.743Z,95930.16
2023-10-26T21:27:45.868Z,95920.27
2023-10-26T21:30:16.467Z,95913.23
2023-10-26T21:32:44.600Z,95918.52
2023-10-26T21:35:12.512Z,95922.70
2023-10-26T21:37:40.478Z,95920.84
2023-10-26T21:40:09.389Z,95919.39
2023-10-26T21:42:37.539Z,95914.16
2023-10-26T21:45:08.109Z,95914.96
2023-10-26T21:47:36.319Z,95909.04
2023-10-26T21:50:05.184Z,95916.55
2023-10-26T21:52:33.339Z,95913.80
2023-10-26T21:55:01.243Z,95908.16
2023-10-26T21:57:29.153Z,95903.02
2023-10-26T21:59:57.171Z,95893.80
2023-10-26T22:02:26.113Z,95886.22
2023-10-26T22:04:54.185Z,95883.80
2023-10-26T22:07:22.320Z,95882.94
2023-10-26T22:09:55.486Z,95890.02
2023-10-26T22:12:23.998Z,95894.63
2023-10-26T22:14:52.064Z,95886.53
2023-10-26T22:17:20.180Z,95877.87
2023-10-26T22:19:51.613Z,95876.27
2023-10-26T22:22:19.895Z,95879.10
2023-10-26T22:24:48.190Z,95878.83
2023-10-26T22:27:16.351Z,95872.59
2023-10-26T22:29:44.535Z,95872.80
2023-10-26T22:32:12.968Z,95867.83
2023-10-26T22:34:41.403Z,95865.48
2023-10-26T22:37:09.436Z,95861.73
2023-10-26T22:39:37.418Z,95858.63
2023-10-26T22:42:05.599Z,95855.69
2023-10-26T22:44:33.647Z,95868.34
2023-10-26T22:47:01.606Z,95870.08
2023-10-26T22:49:29.574Z,95861.15
2023-10-26T22:51:57.647Z,95853.82
2023-10-26T22:54:25.602Z,95852.80
2023-10-26T22:56:53.526Z,95865.75
2023-10-26T22:59:21.882Z,95868.45
2023-10-26T23:01:51.181Z,95859.70
2023-10-26T23:04:19.500Z,95856.83
2023-10-26T23:06:48.122Z,95846.81
2023-10-26T23:09:17.242Z,95832.00
2023-10-26T23:11:45.364Z,95831.19
2023-10-26T23:14:13.416Z,95829.04
2023-10-26T23:16:41.371Z,95825.77
2023-10-26T23:19:09.479Z,95830.27
2023-10-26T23:21:37.565Z,95828.23
2023-10-26T23:24:06.267Z,95825.35
2023-10-26T23:26:35.320Z,95838.98
2023-10-26T23:29:04.788Z,95851.30
2023-10-26T23:31:34.213Z,95843.05
2023-10-26T23:34:02.269Z,95833.54
2023-10-26T23:36:30.300Z,95834.73
2023-10-26T23:38:58.372Z,95832.91
2023-10-26T23:41:26.312Z,95833.28
2023-10-26T23:43:54.185Z,95835.83
2023-10-26T23:46:22.176Z,95839.48
2023-10-26T23:48:50.199Z,95830.94
2023-10-26T23:51:19.183Z,95823.83
2023-10-26T23:53:47.260Z,95823.05
2023-10-26T23:56:15.406Z,95817.27
2023-10-26T23:58:43.856Z,95813.52
